Terminal Aerodrome Forecast
Issued by NWS

Home | Current Version | Previous Version | Text Only | Print | Product List | Glossary On
Versions: 1 2 3 4 5 6 7 8 9 10 11 12 13 14 15 16 17 18 19 20 21 22
095
FTUS43 KGRB 190916 AAA
TAFAUW
TAF AMD
KAUW 190916Z 1909/2006 22004KT 1/4SM FG VV002
      TEMPO 1912/1915 1SM BR OVC004
     FM191500 21003KT 2SM BR OVC005
     FM191600 19003KT 5SM BR BKN009
     FM192000 17005KT 6SM BR SCT012
     FM200200 10003KT 2SM BR OVC010=

USA.gov is the U.S. government's official web portal to all federal, state and local government web resources and services.